createdAt,value
2018-12-27T00:01:51.604Z,201.30
2018-12-27T00:04:20.412Z,194.60
2018-12-27T00:06:49.829Z,189.80
2018-12-27T00:09:19.208Z,197.10
2018-12-27T00:11:48.171Z,194.90
2018-12-27T00:14:17.081Z,194.17
2018-12-27T00:16:45.966Z,197.93
2018-12-27T00:19:14.966Z,190.13
2018-12-27T00:21:43.954Z,200.97
2018-12-27T00:24:13.316Z,208.10
2018-12-27T00:26:42.209Z,202.10
2018-12-27T00:29:11.398Z,201.17
2018-12-27T00:31:40.684Z,199.27
2018-12-27T00:34:10.275Z,209.17
2018-12-27T00:36:39.896Z,207.57
2018-12-27T00:39:09.138Z,203.40
2018-12-27T00:41:39.105Z,202.80
2018-12-27T00:44:08.852Z,201.30
2018-12-27T00:46:38.254Z,199.90
2018-12-27T00:49:07.396Z,195.93
2018-12-27T00:51:36.629Z,190.37
2018-12-27T00:54:06.693Z,191.23
2018-12-27T00:56:36.354Z,190.60
2018-12-27T00:59:05.620Z,184.07
2018-12-27T01:01:34.905Z,195.67
2018-12-27T01:04:05.322Z,195.33
2018-12-27T01:06:34.465Z,192.37
2018-12-27T01:09:04.451Z,197.77
2018-12-27T01:11:34.169Z,193.13
2018-12-27T01:14:03.393Z,197.63
2018-12-27T01:16:33.124Z,189.90
2018-12-27T01:19:03.281Z,193.87
2018-12-27T01:21:32.840Z,213.23
2018-12-27T01:24:03.198Z,189.27
2018-12-27T01:26:32.833Z,192.47
2018-12-27T01:29:01.938Z,193.63
2018-12-27T01:31:31.452Z,196.10
2018-12-27T01:34:00.707Z,191.47
2018-12-27T01:36:31.395Z,201.97
2018-12-27T01:39:00.711Z,193.10
2018-12-27T01:41:30.074Z,191.00
2018-12-27T01:43:59.598Z,192.23
2018-12-27T01:46:29.417Z,194.17
2018-12-27T01:49:00.094Z,191.17
2018-12-27T01:51:29.396Z,195.00
2018-12-27T01:53:59.182Z,197.50
2018-12-27T01:56:29.648Z,189.80
2018-12-27T01:58:59.279Z,192.60
2018-12-27T02:01:28.589Z,193.40
2018-12-27T02:03:58.116Z,196.33
2018-12-27T02:06:28.266Z,206.43
2018-12-27T02:08:57.693Z,192.93
2018-12-27T02:11:27.017Z,194.63
2018-12-27T02:13:56.247Z,194.53
2018-12-27T02:16:26.434Z,196.00
2018-12-27T02:18:55.659Z,194.47
2018-12-27T02:21:24.880Z,200.70
2018-12-27T02:23:54.303Z,195.10
2018-12-27T02:26:23.532Z,206.73
2018-12-27T02:28:52.730Z,196.37
2018-12-27T02:31:21.848Z,190.63
2018-12-27T02:33:51.119Z,190.87
2018-12-27T02:36:20.402Z,196.97
2018-12-27T02:38:49.569Z,189.10
2018-12-27T02:41:18.859Z,193.83
2018-12-27T02:43:48.925Z,193.07
2018-12-27T02:46:18.211Z,200.37
2018-12-27T02:48:47.457Z,201.60
2018-12-27T02:51:16.731Z,189.17
2018-12-27T02:53:45.980Z,191.33
2018-12-27T02:56:15.144Z,197.77
2018-12-27T02:58:44.361Z,197.80
2018-12-27T03:01:13.689Z,194.90
2018-12-27T03:03:44.058Z,189.70
2018-12-27T03:06:13.369Z,189.47
2018-12-27T03:08:42.595Z,188.93
2018-12-27T03:11:11.921Z,184.27
2018-12-27T03:13:41.021Z,182.00
2018-12-27T03:16:12.155Z,192.00
2018-12-27T03:18:41.894Z,197.77
2018-12-27T03:21:11.059Z,196.97
2018-12-27T03:23:40.335Z,194.57
2018-12-27T03:26:09.564Z,189.57
2018-12-27T03:28:38.701Z,192.50
2018-12-27T03:31:07.930Z,195.60
2018-12-27T03:33:37.307Z,194.80
2018-12-27T03:36:06.621Z,192.10
2018-12-27T03:38:35.837Z,193.47
2018-12-27T03:41:05.235Z,199.10
2018-12-27T03:43:34.501Z,191.20
2018-12-27T03:46:03.932Z,195.43
2018-12-27T03:48:35.073Z,196.63
2018-12-27T03:51:04.210Z,199.13
2018-12-27T03:53:33.686Z,194.60
2018-12-27T03:56:03.011Z,194.80
2018-12-27T03:58:32.508Z,195.47
2018-12-27T04:01:01.680Z,191.07
2018-12-27T04:03:31.028Z,195.57
2018-12-27T04:06:00.232Z,186.30
2018-12-27T04:08:29.507Z,199.03
2018-12-27T04:10:58.701Z,199.47
2018-12-27T04:13:27.912Z,191.87
2018-12-27T04:15:56.869Z,193.43
2018-12-27T04:18:25.756Z,193.17
2018-12-27T04:20:54.664Z,187.80
2018-12-27T04:23:23.458Z,187.17
2018-12-27T04:25:52.295Z,192.47
2018-12-27T04:28:21.244Z,187.73
2018-12-27T04:30:50.181Z,185.27
2018-12-27T04:33:19.246Z,185.77
2018-12-27T04:35:48.942Z,190.00
2018-12-27T04:38:17.853Z,187.40
2018-12-27T04:40:46.790Z,185.83
2018-12-27T04:43:15.704Z,187.60
2018-12-27T04:45:44.539Z,182.37
2018-12-27T04:48:13.929Z,184.97
2018-12-27T04:50:42.887Z,192.07
2018-12-27T04:53:11.841Z,192.20
2018-12-27T04:55:40.743Z,186.33
2018-12-27T04:58:09.632Z,181.80
2018-12-27T05:00:38.603Z,192.40
2018-12-27T05:03:07.585Z,192.73
2018-12-27T05:05:36.496Z,185.97
2018-12-27T05:08:05.345Z,186.00
2018-12-27T05:10:34.279Z,188.23
2018-12-27T05:13:03.255Z,190.00
2018-12-27T05:15:32.224Z,193.03
2018-12-27T05:18:01.161Z,193.70
2018-12-27T05:20:30.475Z,198.47
2018-12-27T05:22:59.345Z,186.90
2018-12-27T05:25:28.163Z,181.80
2018-12-27T05:27:57.377Z,180.80
2018-12-27T05:30:26.343Z,184.20
2018-12-27T05:32:55.255Z,187.37
2018-12-27T05:35:24.151Z,187.07
2018-12-27T05:37:53.058Z,185.53
2018-12-27T05:40:22.012Z,188.70
2018-12-27T05:42:50.918Z,176.93
2018-12-27T05:45:19.832Z,180.07
2018-12-27T05:47:48.644Z,174.93
2018-12-27T05:50:18.760Z,174.00
2018-12-27T05:52:47.610Z,179.13
2018-12-27T05:55:16.876Z,182.27
2018-12-27T05:57:45.763Z,187.43
2018-12-27T06:00:15.025Z,184.43
2018-12-27T06:02:43.943Z,196.87
2018-12-27T06:05:13.213Z,180.13
2018-12-27T06:07:41.989Z,181.80
2018-12-27T06:10:10.889Z,188.53
2018-12-27T06:12:39.789Z,182.47
2018-12-27T06:15:08.962Z,190.60
2018-12-27T06:17:40.613Z,188.77
2018-12-27T06:20:09.576Z,190.60
2018-12-27T06:22:38.786Z,188.77
2018-12-27T06:25:07.623Z,188.20
2018-12-27T06:27:37.212Z,188.23
2018-12-27T06:30:06.624Z,187.07
2018-12-27T06:32:35.417Z,189.17
2018-12-27T06:35:04.687Z,194.10
2018-12-27T06:37:34.014Z,191.73
2018-12-27T06:40:02.820Z,194.27
2018-12-27T06:42:31.798Z,189.67
2018-12-27T06:45:00.815Z,188.93
2018-12-27T06:47:29.624Z,196.77
2018-12-27T06:49:58.430Z,191.03
2018-12-27T06:52:27.654Z,189.77
2018-12-27T06:54:56.680Z,182.20
2018-12-27T06:57:25.900Z,181.87
2018-12-27T06:59:54.844Z,185.10
2018-12-27T07:02:23.671Z,193.77
2018-12-27T07:04:52.631Z,193.77
2018-12-27T07:07:21.578Z,191.20
2018-12-27T07:09:50.479Z,183.83
2018-12-27T07:12:20.248Z,185.30
2018-12-27T07:14:49.283Z,178.47
2018-12-27T07:17:18.565Z,186.50
2018-12-27T07:19:47.509Z,183.70
2018-12-27T07:22:16.426Z,178.43
2018-12-27T07:24:45.363Z,189.93
2018-12-27T07:27:14.283Z,184.87
2018-12-27T07:29:43.168Z,182.33
2018-12-27T07:32:12.959Z,182.03
2018-12-27T07:34:42.666Z,183.00
2018-12-27T07:37:11.532Z,192.77
2018-12-27T07:39:40.467Z,189.73
2018-12-27T07:42:09.997Z,195.80
2018-12-27T07:44:38.932Z,189.67
2018-12-27T07:47:08.352Z,191.43
2018-12-27T07:49:37.252Z,185.63
2018-12-27T07:52:06.146Z,193.17
2018-12-27T07:54:34.979Z,191.53
2018-12-27T07:57:04.587Z,207.03
2018-12-27T07:59:33.498Z,191.30
2018-12-27T08:02:02.564Z,187.00
2018-12-27T08:04:31.545Z,193.23
2018-12-27T08:07:01.118Z,182.30
2018-12-27T08:09:30.048Z,188.10
2018-12-27T08:11:59.024Z,189.33
2018-12-27T08:14:28.365Z,182.47
2018-12-27T08:16:57.175Z,182.27
2018-12-27T08:19:26.168Z,184.83
2018-12-27T08:21:55.424Z,190.03
2018-12-27T08:24:24.367Z,188.57
2018-12-27T08:26:53.162Z,196.73
2018-12-27T08:29:22.004Z,192.97
2018-12-27T08:31:51.995Z,193.37
2018-12-27T08:34:20.907Z,186.70
2018-12-27T08:36:49.721Z,200.30
2018-12-27T08:39:19.132Z,185.07
2018-12-27T08:41:48.394Z,188.90
2018-12-27T08:44:17.324Z,180.27
2018-12-27T08:46:46.674Z,187.40
2018-12-27T08:49:17.414Z,187.03
2018-12-27T08:51:46.212Z,191.97
2018-12-27T08:54:15.532Z,180.40
2018-12-27T08:56:46.671Z,182.67
2018-12-27T08:59:16.004Z,194.20
2018-12-27T09:01:45.015Z,191.30
2018-12-27T09:04:14.580Z,205.40
2018-12-27T09:06:43.391Z,191.43
2018-12-27T09:09:12.312Z,183.27
2018-12-27T09:11:41.196Z,190.83
2018-12-27T09:14:10.088Z,184.07
2018-12-27T09:16:38.997Z,187.77
2018-12-27T09:19:08.195Z,189.67
2018-12-27T09:21:37.080Z,191.53
2018-12-27T09:24:06.060Z,193.13
2018-12-27T09:26:35.218Z,179.20
2018-12-27T09:29:04.077Z,200.00
2018-12-27T09:31:32.868Z,202.30
2018-12-27T09:34:01.767Z,182.57
2018-12-27T09:36:30.620Z,188.97
2018-12-27T09:38:59.564Z,202.57
2018-12-27T09:41:28.497Z,204.00
2018-12-27T09:43:57.391Z,195.73
2018-12-27T09:46:26.385Z,194.37
2018-12-27T09:48:56.024Z,192.57
2018-12-27T09:51:25.008Z,178.87
2018-12-27T09:53:54.007Z,198.37
2018-12-27T09:56:22.868Z,201.67
2018-12-27T09:58:52.115Z,198.73
2018-12-27T10:01:21.082Z,213.37
2018-12-27T10:03:49.929Z,202.37
2018-12-27T10:06:18.864Z,198.63
2018-12-27T10:08:47.845Z,201.20
2018-12-27T10:11:16.799Z,209.13
2018-12-27T10:13:45.764Z,205.80
2018-12-27T10:16:14.699Z,196.60
2018-12-27T10:18:43.654Z,193.37
2018-12-27T10:21:12.541Z,196.57
2018-12-27T10:23:41.564Z,185.50
2018-12-27T10:26:10.481Z,188.13
2018-12-27T10:28:39.508Z,182.37
2018-12-27T10:31:08.478Z,195.87
2018-12-27T10:33:37.453Z,177.93
2018-12-27T10:36:06.353Z,192.13
2018-12-27T10:38:35.335Z,196.83
2018-12-27T10:41:04.418Z,212.10
2018-12-27T10:43:33.292Z,198.70
2018-12-27T10:46:03.078Z,185.03
2018-12-27T10:48:32.441Z,200.83
2018-12-27T10:51:01.446Z,199.20
2018-12-27T10:53:30.395Z,188.23
2018-12-27T10:55:59.330Z,184.67
2018-12-27T10:58:28.152Z,192.63
2018-12-27T11:00:57.061Z,172.67
2018-12-27T11:03:30.580Z,175.63
2018-12-27T11:05:56.973Z,183.13
2018-12-27T11:08:26.064Z,187.10
2018-12-27T11:10:55.177Z,177.63
2018-12-27T11:13:24.069Z,196.83
2018-12-27T11:15:52.997Z,198.73
2018-12-27T11:18:22.199Z,187.10
2018-12-27T11:20:51.095Z,189.83
2018-12-27T11:23:20.054Z,193.37
2018-12-27T11:25:49.482Z,191.93
2018-12-27T11:28:18.636Z,205.00
2018-12-27T11:30:47.609Z,200.57
2018-12-27T11:33:16.864Z,192.10
2018-12-27T11:35:45.863Z,202.03
2018-12-27T11:38:14.690Z,192.43
2018-12-27T11:40:43.907Z,184.33
2018-12-27T11:43:14.595Z,194.53
2018-12-27T11:45:43.484Z,189.93
2018-12-27T11:48:12.395Z,195.40
2018-12-27T11:50:41.411Z,207.20
2018-12-27T11:53:10.275Z,211.37
2018-12-27T11:55:39.440Z,202.03
2018-12-27T11:58:08.446Z,198.27
2018-12-27T12:00:37.391Z,217.87
2018-12-27T12:03:06.393Z,201.10
2018-12-27T12:05:35.282Z,199.33
2018-12-27T12:08:04.256Z,192.60
2018-12-27T12:10:33.172Z,201.47
2018-12-27T12:13:02.140Z,199.13
2018-12-27T12:15:31.567Z,208.87
2018-12-27T12:18:01.426Z,192.00
2018-12-27T12:20:30.890Z,201.53
2018-12-27T12:22:59.920Z,204.33
2018-12-27T12:25:28.905Z,190.63
2018-12-27T12:27:57.700Z,180.40
2018-12-27T12:30:26.499Z,197.10
2018-12-27T12:32:55.483Z,190.20
2018-12-27T12:35:43.518Z,186.23
2018-12-27T12:38:12.814Z,199.30
2018-12-27T12:40:42.216Z,205.73
2018-12-27T12:43:11.161Z,207.33
2018-12-27T12:45:40.389Z,202.50
2018-12-27T12:48:09.626Z,188.50
2018-12-27T12:50:38.664Z,205.10
2018-12-27T12:53:07.840Z,199.67
2018-12-27T12:55:36.748Z,186.77
2018-12-27T12:58:05.635Z,185.93
2018-12-27T13:00:34.618Z,197.70
2018-12-27T13:03:03.611Z,185.13
2018-12-27T13:05:32.580Z,184.50
2018-12-27T13:08:01.518Z,182.93
2018-12-27T13:10:30.786Z,182.33
2018-12-27T13:12:59.673Z,202.53
2018-12-27T13:15:28.629Z,188.40
2018-12-27T13:17:57.546Z,199.30
2018-12-27T13:20:26.431Z,186.30
2018-12-27T13:22:55.421Z,206.07
2018-12-27T13:25:24.344Z,206.97
2018-12-27T13:27:53.305Z,210.60
2018-12-27T13:30:22.096Z,221.00
2018-12-27T13:32:51.352Z,200.67
2018-12-27T13:35:20.654Z,216.30
2018-12-27T13:37:49.634Z,214.57
2018-12-27T13:40:18.596Z,218.20
2018-12-27T13:42:47.413Z,214.17
2018-12-27T13:45:16.773Z,208.57
2018-12-27T13:47:45.722Z,209.17
2018-12-27T13:50:14.848Z,210.97
2018-12-27T13:52:44.088Z,215.87
2018-12-27T13:55:13.066Z,211.20
2018-12-27T13:57:42.320Z,210.73
2018-12-27T14:00:11.153Z,213.83
2018-12-27T14:02:40.055Z,213.40
2018-12-27T14:05:09.411Z,203.30
2018-12-27T14:07:38.359Z,201.00
2018-12-27T14:10:08.120Z,193.10
2018-12-27T14:12:37.422Z,193.77
2018-12-27T14:15:06.820Z,193.27
2018-12-27T14:17:35.832Z,187.53
2018-12-27T14:20:05.773Z,192.83
2018-12-27T14:22:35.050Z,200.87
2018-12-27T14:25:03.947Z,201.10
2018-12-27T14:27:32.894Z,194.43
2018-12-27T14:30:01.911Z,194.57
2018-12-27T14:32:30.890Z,191.83
2018-12-27T14:34:59.870Z,208.97
2018-12-27T14:37:29.131Z,208.07
2018-12-27T14:39:58.810Z,202.63
2018-12-27T14:42:28.348Z,206.60
2018-12-27T14:44:58.065Z,212.10
2018-12-27T14:47:26.918Z,201.90
2018-12-27T14:49:56.833Z,204.87
2018-12-27T14:52:25.910Z,202.90
2018-12-27T14:54:54.725Z,200.13
2018-12-27T14:57:23.698Z,195.50
2018-12-27T14:59:52.994Z,207.97
2018-12-27T15:02:22.491Z,206.53
2018-12-27T15:04:51.458Z,214.77
2018-12-27T15:07:20.295Z,217.27
2018-12-27T15:09:49.262Z,205.97
2018-12-27T15:12:18.408Z,214.00
2018-12-27T15:14:47.317Z,207.13
2018-12-27T15:17:16.174Z,214.93
2018-12-27T15:19:45.485Z,202.70
2018-12-27T15:22:14.478Z,195.53
2018-12-27T15:24:44.196Z,204.40
2018-12-27T15:27:13.549Z,215.80
2018-12-27T15:29:42.369Z,214.30
2018-12-27T15:32:12.213Z,207.43
2018-12-27T15:34:41.120Z,193.47
2018-12-27T15:37:10.166Z,215.83
2018-12-27T15:39:39.474Z,208.73
2018-12-27T15:42:08.707Z,215.10
2018-12-27T15:44:38.591Z,209.47
2018-12-27T15:47:08.282Z,211.00
2018-12-27T15:49:37.478Z,247.20
2018-12-27T15:52:06.400Z,227.47
2018-12-27T15:54:35.782Z,221.67
2018-12-27T15:57:05.085Z,210.87
2018-12-27T15:59:33.968Z,214.97
2018-12-27T16:02:02.988Z,213.67
2018-12-27T16:04:33.046Z,209.97
2018-12-27T16:07:02.407Z,213.17
2018-12-27T16:09:31.315Z,215.00
2018-12-27T16:12:00.880Z,210.00
2018-12-27T16:14:30.260Z,215.33
2018-12-27T16:17:00.140Z,207.07
2018-12-27T16:19:29.130Z,221.70
2018-12-27T16:21:58.386Z,237.70
2018-12-27T16:24:28.102Z,226.88
2018-12-27T16:26:57.385Z,210.77
2018-12-27T16:29:26.651Z,224.20
2018-12-27T16:31:55.942Z,211.07
2018-12-27T16:34:24.756Z,219.33
2018-12-27T16:36:53.589Z,214.70
2018-12-27T16:39:22.993Z,212.10
2018-12-27T16:41:52.216Z,211.07
2018-12-27T16:44:21.969Z,215.37
2018-12-27T16:46:50.882Z,199.77
2018-12-27T16:49:19.902Z,199.60
2018-12-27T16:51:48.895Z,207.07
2018-12-27T16:54:18.023Z,192.40
2018-12-27T16:56:47.023Z,193.10
2018-12-27T16:59:18.007Z,194.33
2018-12-27T17:01:47.382Z,194.33
2018-12-27T17:04:16.967Z,201.10
2018-12-27T17:06:45.972Z,192.80
2018-12-27T17:09:15.134Z,189.43
2018-12-27T17:11:44.163Z,183.97
2018-12-27T17:14:14.023Z,196.03
2018-12-27T17:16:44.886Z,183.13
2018-12-27T17:19:13.854Z,185.83
2018-12-27T17:21:42.961Z,197.50
2018-12-27T17:24:12.531Z,192.57
2018-12-27T17:26:41.562Z,205.00
2018-12-27T17:29:10.594Z,215.40
2018-12-27T17:31:39.644Z,188.33
2018-12-27T17:34:08.600Z,214.17
2018-12-27T17:36:37.956Z,213.43
2018-12-27T17:39:08.247Z,212.20
2018-12-27T17:41:37.253Z,209.00
2018-12-27T17:44:07.170Z,201.20
2018-12-27T17:46:36.587Z,197.17
2018-12-27T17:49:05.446Z,185.50
2018-12-27T17:51:35.354Z,199.33
2018-12-27T17:54:05.362Z,195.53
2018-12-27T17:56:34.816Z,202.43
2018-12-27T17:59:04.561Z,190.40
2018-12-27T18:01:33.691Z,204.00
2018-12-27T18:04:04.606Z,201.27
2018-12-27T18:06:34.260Z,216.07
2018-12-27T18:09:04.262Z,215.07
2018-12-27T18:11:33.537Z,218.63
2018-12-27T18:14:03.202Z,219.93
2018-12-27T18:16:32.460Z,223.07
2018-12-27T18:19:01.780Z,221.63
2018-12-27T18:21:30.966Z,217.73
2018-12-27T18:24:00.251Z,221.10
2018-12-27T18:26:29.278Z,210.53
2018-12-27T18:28:59.579Z,218.73
2018-12-27T18:31:28.584Z,201.13
2018-12-27T18:33:57.447Z,211.03
2018-12-27T18:36:27.604Z,216.67
2018-12-27T18:38:57.010Z,206.10
2018-12-27T18:41:26.752Z,219.67
2018-12-27T18:43:55.780Z,225.80
2018-12-27T18:46:25.892Z,223.43
2018-12-27T18:48:55.252Z,219.80
2018-12-27T18:51:24.549Z,208.17
2018-12-27T18:53:53.379Z,204.77
2018-12-27T18:56:24.358Z,215.53
2018-12-27T18:58:53.698Z,201.57
2018-12-27T19:01:23.306Z,210.37
2018-12-27T19:03:52.457Z,214.90
2018-12-27T19:06:21.518Z,214.13
2018-12-27T19:08:50.655Z,220.83
2018-12-27T19:11:55.924Z,227.60
2018-12-27T19:14:25.266Z,222.63
2018-12-27T19:16:55.156Z,207.17
2018-12-27T19:19:24.666Z,220.90
2018-12-27T19:22:00.117Z,205.93
2018-12-27T19:24:29.534Z,212.63
2018-12-27T19:26:58.550Z,203.20
2018-12-27T19:29:27.798Z,211.80
2018-12-27T19:31:57.185Z,214.03
2018-12-27T19:34:27.071Z,203.23
2018-12-27T19:36:56.076Z,205.13
2018-12-27T19:39:25.538Z,199.47
2018-12-27T19:41:54.566Z,204.60
2018-12-27T19:44:23.858Z,206.10
2018-12-27T19:46:53.562Z,194.97
2018-12-27T19:49:22.883Z,202.37
2018-12-27T19:51:51.950Z,198.57
2018-12-27T19:54:20.945Z,203.90
2018-12-27T19:56:50.257Z,185.93
2018-12-27T19:59:19.149Z,213.93
2018-12-27T20:01:48.944Z,205.60
2018-12-27T20:04:18.601Z,204.40
2018-12-27T20:06:47.972Z,195.13
2018-12-27T20:09:17.188Z,205.37
2018-12-27T20:11:46.927Z,201.17
2018-12-27T20:14:16.247Z,193.67
2018-12-27T20:16:45.301Z,204.57
2018-12-27T20:19:14.424Z,216.70
2018-12-27T20:21:43.790Z,220.53
2018-12-27T20:24:13.271Z,222.20
2018-12-27T20:26:44.096Z,218.67
2018-12-27T20:29:13.940Z,210.20
2018-12-27T20:31:43.811Z,219.20
2018-12-27T20:34:12.993Z,215.33
2018-12-27T20:36:42.378Z,217.70
2018-12-27T20:39:11.787Z,225.23
2018-12-27T20:41:40.752Z,212.30
2018-12-27T20:44:10.301Z,208.47
2018-12-27T20:46:39.645Z,219.13
2018-12-27T20:49:09.124Z,205.17
2018-12-27T20:51:38.383Z,203.67
2018-12-27T20:54:08.202Z,209.30
2018-12-27T20:56:37.194Z,213.13
2018-12-27T20:59:06.643Z,204.67
2018-12-27T21:01:36.341Z,208.17
2018-12-27T21:04:05.454Z,195.47
2018-12-27T21:06:35.624Z,215.73
2018-12-27T21:09:05.728Z,211.77
2018-12-27T21:11:35.827Z,201.87
2018-12-27T21:14:04.836Z,209.87
2018-12-27T21:16:34.051Z,211.87
2018-12-27T21:19:03.817Z,208.73
2018-12-27T21:21:32.780Z,206.40
2018-12-27T21:24:02.004Z,208.50
2018-12-27T21:26:31.092Z,223.20
2018-12-27T21:29:00.269Z,213.80
2018-12-27T21:31:30.253Z,216.87
2018-12-27T21:34:00.346Z,224.40
2018-12-27T21:36:29.321Z,213.23
2018-12-27T21:38:58.128Z,194.77
2018-12-27T21:41:27.135Z,204.53
2018-12-27T21:43:56.775Z,200.53
2018-12-27T21:46:25.814Z,206.03
2018-12-27T21:48:55.421Z,220.10
2018-12-27T21:51:24.795Z,223.37
2018-12-27T21:53:53.970Z,215.53
2018-12-27T21:56:23.149Z,210.40
2018-12-27T21:58:52.041Z,215.77
2018-12-27T22:01:21.423Z,211.30
2018-12-27T22:03:51.486Z,214.90
2018-12-27T22:06:20.492Z,210.23
2018-12-27T22:08:50.032Z,218.57
2018-12-27T22:11:19.319Z,219.07
2018-12-27T22:13:49.586Z,246.90
2018-12-27T22:16:18.972Z,236.27
2018-12-27T22:18:47.967Z,235.37
2018-12-27T22:21:17.327Z,207.53
2018-12-27T22:23:46.671Z,202.57
2018-12-27T22:26:15.491Z,209.37
2018-12-27T22:28:44.527Z,204.33
2018-12-27T22:31:13.414Z,203.90
2018-12-27T22:33:42.697Z,208.00
2018-12-27T22:36:12.960Z,214.60
2018-12-27T22:38:42.805Z,209.97
2018-12-27T22:41:11.761Z,209.50
2018-12-27T22:43:41.337Z,193.80
2018-12-27T22:46:10.758Z,206.70
2018-12-27T22:48:40.001Z,200.23
2018-12-27T22:51:09.069Z,205.27
2018-12-27T22:53:57.183Z,186.67
2018-12-27T22:56:26.259Z,208.43
2018-12-27T22:58:55.707Z,203.63
2018-12-27T23:01:24.994Z,201.27
2018-12-27T23:03:53.956Z,195.53
2018-12-27T23:06:23.248Z,206.30
2018-12-27T23:08:52.242Z,199.27
2018-12-27T23:11:21.641Z,213.77
2018-12-27T23:13:53.306Z,214.20
2018-12-27T23:16:22.246Z,210.47
2018-12-27T23:18:52.124Z,209.80
2018-12-27T23:21:21.584Z,208.17
2018-12-27T23:23:51.781Z,211.07
2018-12-27T23:26:21.688Z,217.23
2018-12-27T23:28:50.737Z,216.27
2018-12-27T23:31:21.502Z,211.83
2018-12-27T23:33:50.927Z,214.70
2018-12-27T23:36:20.107Z,216.40
2018-12-27T23:38:50.522Z,225.83
2018-12-27T23:41:19.728Z,216.17
2018-12-27T23:43:49.182Z,217.60
2018-12-27T23:46:18.113Z,219.13
2018-12-27T23:48:47.029Z,209.53
2018-12-27T23:51:16.746Z,207.10
2018-12-27T23:53:45.697Z,221.30
2018-12-27T23:56:16.192Z,211.53
2018-12-27T23:58:45.101Z,210.90
